sensor_id;sensor_type;location;lat;lon;timestamp;pressure;altitude;pressure_sealevel;temperature;humidity
13869;BME280;7004;48.206;16.402;2023-05-21T00:01:03;99847.63;;;17.36;92.32
13869;BME280;7004;48.206;16.402;2023-05-21T00:03:31;99855.56;;;17.16;92.71
13869;BME280;7004;48.206;16.402;2023-05-21T00:05:57;99845.59;;;17.18;93.37
13869;BME280;7004;48.206;16.402;2023-05-21T00:08:23;99841.84;;;16.90;94.43
13869;BME280;7004;48.206;16.402;2023-05-21T00:10:49;99845.53;;;16.47;96.45
13869;BME280;7004;48.206;16.402;2023-05-21T00:13:15;99847.56;;;16.55;96.85
13869;BME280;7004;48.206;16.402;2023-05-21T00:15:41;99845.69;;;16.46;97.47
13869;BME280;7004;48.206;16.402;2023-05-21T00:18:07;99843.31;;;16.43;97.43
13869;BME280;7004;48.206;16.402;2023-05-21T00:20:33;99840.66;;;16.52;96.93
13869;BME280;7004;48.206;16.402;2023-05-21T00:23:01;99849.22;;;16.46;97.11
13869;BME280;7004;48.206;16.402;2023-05-21T00:25:28;99858.78;;;16.07;98.82
13869;BME280;7004;48.206;16.402;2023-05-21T00:27:55;99871.44;;;15.93;99.38
13869;BME280;7004;48.206;16.402;2023-05-21T00:30:21;99850.09;;;16.56;96.73
13869;BME280;7004;48.206;16.402;2023-05-21T00:32:47;99851.81;;;16.36;98.74
13869;BME280;7004;48.206;16.402;2023-05-21T00:35:14;99854.94;;;16.72;97.12
13869;BME280;7004;48.206;16.402;2023-05-21T00:37:40;99850.22;;;16.76;96.07
13869;BME280;7004;48.206;16.402;2023-05-21T00:40:07;99857.03;;;16.90;95.25
13869;BME280;7004;48.206;16.402;2023-05-21T00:42:34;99852.75;;;16.77;95.78
13869;BME280;7004;48.206;16.402;2023-05-21T00:45:05;99858.09;;;16.77;96.36
13869;BME280;7004;48.206;16.402;2023-05-21T00:47:32;99850.00;;;16.89;95.69
13869;BME280;7004;48.206;16.402;2023-05-21T00:50:01;99844.25;;;16.93;94.97
13869;BME280;7004;48.206;16.402;2023-05-21T00:52:27;99846.25;;;17.01;94.32
13869;BME280;7004;48.206;16.402;2023-05-21T00:54:54;99846.19;;;16.91;95.53
13869;BME280;7004;48.206;16.402;2023-05-21T00:57:24;99846.81;;;16.74;96.34
13869;BME280;7004;48.206;16.402;2023-05-21T00:59:52;99839.41;;;16.77;96.53
13869;BME280;7004;48.206;16.402;2023-05-21T01:02:18;99838.66;;;16.66;96.45
13869;BME280;7004;48.206;16.402;2023-05-21T01:04:54;99835.09;;;16.55;97.34
13869;BME280;7004;48.206;16.402;2023-05-21T01:07:21;99832.47;;;16.44;97.26
13869;BME280;7004;48.206;16.402;2023-05-21T01:09:47;99833.78;;;16.08;99.92
13869;BME280;7004;48.206;16.402;2023-05-21T01:12:14;99829.81;;;16.44;98.42
13869;BME280;7004;48.206;16.402;2023-05-21T01:14:41;99834.56;;;16.41;97.81
13869;BME280;7004;48.206;16.402;2023-05-21T01:17:08;99830.63;;;16.35;97.96
13869;BME280;7004;48.206;16.402;2023-05-21T01:19:35;99831.97;;;16.50;96.94
13869;BME280;7004;48.206;16.402;2023-05-21T01:22:06;99831.09;;;16.50;97.15
13869;BME280;7004;48.206;16.402;2023-05-21T01:24:33;99831.53;;;16.45;97.45
13869;BME280;7004;48.206;16.402;2023-05-21T01:27:02;99830.13;;;16.51;97.15
13869;BME280;7004;48.206;16.402;2023-05-21T01:29:28;99822.97;;;16.51;97.34
13869;BME280;7004;48.206;16.402;2023-05-21T01:35:10;99821.84;;;16.54;97.33
13869;BME280;7004;48.206;16.402;2023-05-21T01:37:58;99816.69;;;16.62;96.99
13869;BME280;7004;48.206;16.402;2023-05-21T01:40:45;99817.56;;;16.32;98.50
13869;BME280;7004;48.206;16.402;2023-05-21T01:43:13;99818.66;;;16.29;97.98
13869;BME280;7004;48.206;16.402;2023-05-21T01:45:42;99806.00;;;16.31;98.02
13869;BME280;7004;48.206;16.402;2023-05-21T01:48:09;99809.34;;;15.82;100.00
13869;BME280;7004;48.206;16.402;2023-05-21T01:50:38;99812.47;;;15.87;99.39
13869;BME280;7004;48.206;16.402;2023-05-21T01:53:05;99806.47;;;16.15;98.06
13869;BME280;7004;48.206;16.402;2023-05-21T01:55:32;99797.75;;;16.13;97.12
13869;BME280;7004;48.206;16.402;2023-05-21T01:57:59;99804.31;;;15.56;100.00
13869;BME280;7004;48.206;16.402;2023-05-21T02:00:26;99801.53;;;15.90;98.68
13869;BME280;7004;48.206;16.402;2023-05-21T02:02:54;99794.03;;;15.19;100.00
13869;BME280;7004;48.206;16.402;2023-05-21T02:05:21;99791.59;;;15.71;100.00
13869;BME280;7004;48.206;16.402;2023-05-21T02:07:50;99803.63;;;15.86;100.00
13869;BME280;7004;48.206;16.402;2023-05-21T02:10:17;99797.75;;;15.71;100.00
13869;BME280;7004;48.206;16.402;2023-05-21T02:12:43;99802.88;;;15.96;99.85
13869;BME280;7004;48.206;16.402;2023-05-21T02:15:09;99805.19;;;16.10;99.70
13869;BME280;7004;48.206;16.402;2023-05-21T02:17:36;99801.06;;;15.85;100.00
13869;BME280;7004;48.206;16.402;2023-05-21T02:20:04;99805.38;;;15.97;99.17
13869;BME280;7004;48.206;16.402;2023-05-21T02:22:46;99801.91;;;15.64;100.00
13869;BME280;7004;48.206;16.402;2023-05-21T02:25:14;99794.25;;;15.39;100.00
13869;BME280;7004;48.206;16.402;2023-05-21T02:27:42;99794.47;;;15.68;99.81
13869;BME280;7004;48.206;16.402;2023-05-21T02:30:13;99801.44;;;15.59;100.00
13869;BME280;7004;48.206;16.402;2023-05-21T02:32:42;99797.78;;;15.60;99.97
13869;BME280;7004;48.206;16.402;2023-05-21T02:35:12;99797.38;;;15.33;100.00
13869;BME280;7004;48.206;16.402;2023-05-21T02:37:40;99808.25;;;14.97;100.00
13869;BME280;7004;48.206;16.402;2023-05-21T02:40:07;99801.59;;;15.46;100.00
13869;BME280;7004;48.206;16.402;2023-05-21T02:42:36;99800.44;;;15.60;100.00
13869;BME280;7004;48.206;16.402;2023-05-21T02:45:06;99800.41;;;15.71;98.87
13869;BME280;7004;48.206;16.402;2023-05-21T02:47:33;99806.31;;;15.54;100.00
13869;BME280;7004;48.206;16.402;2023-05-21T02:49:59;99800.44;;;15.60;98.77
13869;BME280;7004;48.206;16.402;2023-05-21T02:52:27;99806.25;;;15.65;99.23
13869;BME280;7004;48.206;16.402;2023-05-21T02:54:53;99797.81;;;15.17;100.00
13869;BME280;7004;48.206;16.402;2023-05-21T02:57:19;99790.22;;;15.01;100.00
13869;BME280;7004;48.206;16.402;2023-05-21T02:59:45;99797.03;;;15.37;100.00
13869;BME280;7004;48.206;16.402;2023-05-21T03:02:11;99802.81;;;15.42;100.00
13869;BME280;7004;48.206;16.402;2023-05-21T03:04:37;99805.69;;;15.50;100.00
13869;BME280;7004;48.206;16.402;2023-05-21T03:07:04;99798.63;;;15.93;98.51
13869;BME280;7004;48.206;16.402;2023-05-21T03:09:31;99793.41;;;15.70;99.73
13869;BME280;7004;48.206;16.402;2023-05-21T03:11:56;99790.16;;;15.23;100.00
13869;BME280;7004;48.206;16.402;2023-05-21T03:14:22;99790.06;;;15.14;100.00
13869;BME280;7004;48.206;16.402;2023-05-21T03:16:49;99797.69;;;15.07;100.00
13869;BME280;7004;48.206;16.402;2023-05-21T03:19:16;99802.13;;;15.29;100.00
13869;BME280;7004;48.206;16.402;2023-05-21T03:21:42;99802.78;;;14.99;100.00
13869;BME280;7004;48.206;16.402;2023-05-21T03:24:08;99804.53;;;15.32;100.00
13869;BME280;7004;48.206;16.402;2023-05-21T03:26:35;99799.09;;;15.22;99.46
13869;BME280;7004;48.206;16.402;2023-05-21T03:29:01;99798.69;;;15.49;99.27
13869;BME280;7004;48.206;16.402;2023-05-21T03:31:27;99799.78;;;15.36;100.00
13869;BME280;7004;48.206;16.402;2023-05-21T03:33:53;99798.31;;;15.43;100.00
13869;BME280;7004;48.206;16.402;2023-05-21T03:36:19;99801.66;;;15.56;98.04
13869;BME280;7004;48.206;16.402;2023-05-21T03:38:45;99810.44;;;15.47;98.71
13869;BME280;7004;48.206;16.402;2023-05-21T03:41:12;99808.03;;;15.76;99.05
13869;BME280;7004;48.206;16.402;2023-05-21T03:43:38;99803.22;;;15.70;98.67
13869;BME280;7004;48.206;16.402;2023-05-21T03:46:04;99802.53;;;15.57;100.00
13869;BME280;7004;48.206;16.402;2023-05-21T03:48:30;99802.28;;;15.60;99.66
13869;BME280;7004;48.206;16.402;2023-05-21T03:50:56;99808.81;;;15.23;100.00
13869;BME280;7004;48.206;16.402;2023-05-21T03:53:23;99805.19;;;15.13;100.00
13869;BME280;7004;48.206;16.402;2023-05-21T03:55:49;99809.66;;;15.56;100.00
13869;BME280;7004;48.206;16.402;2023-05-21T03:58:23;99800.34;;;15.62;100.00
13869;BME280;7004;48.206;16.402;2023-05-21T04:00:49;99794.47;;;15.68;100.00
13869;BME280;7004;48.206;16.402;2023-05-21T04:03:16;99804.47;;;15.87;99.27
13869;BME280;7004;48.206;16.402;2023-05-21T04:05:42;99806.28;;;15.86;99.17
13869;BME280;7004;48.206;16.402;2023-05-21T04:08:09;99803.09;;;15.71;100.00
13869;BME280;7004;48.206;16.402;2023-05-21T04:10:35;99807.75;;;15.90;99.34
13869;BME280;7004;48.206;16.402;2023-05-21T04:13:01;99810.34;;;16.02;98.93
13869;BME280;7004;48.206;16.402;2023-05-21T04:15:27;99809.34;;;16.03;98.78
13869;BME280;7004;48.206;16.402;2023-05-21T04:17:54;99807.56;;;16.03;99.63
13869;BME280;7004;48.206;16.402;2023-05-21T04:20:20;99807.72;;;15.69;100.00
13869;BME280;7004;48.206;16.402;2023-05-21T04:22:47;99803.31;;;15.68;100.00
13869;BME280;7004;48.206;16.402;2023-05-21T04:25:13;99812.28;;;15.67;100.00
13869;BME280;7004;48.206;16.402;2023-05-21T04:27:39;99806.41;;;15.85;100.00
13869;BME280;7004;48.206;16.402;2023-05-21T04:30:05;99798.38;;;15.75;100.00
13869;BME280;7004;48.206;16.402;2023-05-21T04:32:32;99806.94;;;15.79;100.00
13869;BME280;7004;48.206;16.402;2023-05-21T04:35:00;99814.03;;;15.89;100.00
13869;BME280;7004;48.206;16.402;2023-05-21T04:37:27;99808.63;;;16.43;99.27
13869;BME280;7004;48.206;16.402;2023-05-21T04:39:53;99816.00;;;16.29;99.38
13869;BME280;7004;48.206;16.402;2023-05-21T04:42:20;99818.09;;;16.56;98.14
13869;BME280;7004;48.206;16.402;2023-05-21T04:44:49;99820.59;;;16.79;96.78
13869;BME280;7004;48.206;16.402;2023-05-21T04:47:16;99820.69;;;17.08;94.74
13869;BME280;7004;48.206;16.402;2023-05-21T04:49:46;99819.50;;;16.91;95.87
13869;BME280;7004;48.206;16.402;2023-05-21T04:52:12;99817.38;;;17.25;93.57
13869;BME280;7004;48.206;16.402;2023-05-21T04:54:38;99817.53;;;17.43;91.30
13869;BME280;7004;48.206;16.402;2023-05-21T04:57:07;99822.16;;;17.41;92.28
13869;BME280;7004;48.206;16.402;2023-05-21T04:59:34;99819.50;;;17.61;91.45
13869;BME280;7004;48.206;16.402;2023-05-21T05:02:00;99811.31;;;17.43;94.10
13869;BME280;7004;48.206;16.402;2023-05-21T05:04:27;99816.16;;;17.59;92.73
13869;BME280;7004;48.206;16.402;2023-05-21T05:06:53;99813.44;;;17.68;95.02
13869;BME280;7004;48.206;16.402;2023-05-21T05:09:19;99814.47;;;17.77;94.66
13869;BME280;7004;48.206;16.402;2023-05-21T05:11:50;99812.78;;;17.86;94.89
13869;BME280;7004;48.206;16.402;2023-05-21T05:14:16;99819.38;;;17.82;91.29
13869;BME280;7004;48.206;16.402;2023-05-21T05:16:44;99815.03;;;17.90;89.59
13869;BME280;7004;48.206;16.402;2023-05-21T05:19:13;99820.47;;;18.18;88.13
13869;BME280;7004;48.206;16.402;2023-05-21T05:21:39;99812.19;;;18.21;88.78
13869;BME280;7004;48.206;16.402;2023-05-21T05:24:05;99813.25;;;18.38;87.84
13869;BME280;7004;48.206;16.402;2023-05-21T05:26:31;99822.59;;;18.15;85.92
13869;BME280;7004;48.206;16.402;2023-05-21T05:28:57;99818.00;;;18.44;85.95
13869;BME280;7004;48.206;16.402;2023-05-21T05:31:23;99821.22;;;18.58;85.12
13869;BME280;7004;48.206;16.402;2023-05-21T05:33:49;99820.03;;;18.32;88.61
13869;BME280;7004;48.206;16.402;2023-05-21T05:36:15;99817.59;;;18.39;86.97
13869;BME280;7004;48.206;16.402;2023-05-21T05:38:41;99821.19;;;18.77;85.33
13869;BME280;7004;48.206;16.402;2023-05-21T05:41:08;99822.34;;;19.02;84.72
13869;BME280;7004;48.206;16.402;2023-05-21T05:43:34;99823.97;;;19.13;80.31
13869;BME280;7004;48.206;16.402;2023-05-21T05:46:00;99821.75;;;19.26;77.97
13869;BME280;7004;48.206;16.402;2023-05-21T05:48:26;99817.69;;;19.22;79.14
13869;BME280;7004;48.206;16.402;2023-05-21T05:50:52;99819.81;;;19.46;75.98
13869;BME280;7004;48.206;16.402;2023-05-21T05:53:22;99820.19;;;19.06;77.53
13869;BME280;7004;48.206;16.402;2023-05-21T05:55:48;99824.44;;;19.26;75.76
13869;BME280;7004;48.206;16.402;2023-05-21T05:58:14;99816.84;;;19.67;74.76
13869;BME280;7004;48.206;16.402;2023-05-21T06:00:41;99824.09;;;19.57;76.74
13869;BME280;7004;48.206;16.402;2023-05-21T06:03:06;99817.25;;;19.45;74.97
13869;BME280;7004;48.206;16.402;2023-05-21T06:05:33;99820.03;;;19.53;74.36
13869;BME280;7004;48.206;16.402;2023-05-21T06:07:59;99817.69;;;19.68;73.76
13869;BME280;7004;48.206;16.402;2023-05-21T06:10:25;99815.19;;;20.10;71.60
13869;BME280;7004;48.206;16.402;2023-05-21T06:12:51;99819.34;;;19.86;72.30
13869;BME280;7004;48.206;16.402;2023-05-21T06:15:17;99811.22;;;19.96;70.41
13869;BME280;7004;48.206;16.402;2023-05-21T06:17:44;99816.28;;;20.25;70.13
13869;BME280;7004;48.206;16.402;2023-05-21T06:20:11;99807.94;;;20.28;69.18
13869;BME280;7004;48.206;16.402;2023-05-21T06:22:37;99816.72;;;20.39;67.73
13869;BME280;7004;48.206;16.402;2023-05-21T06:25:04;99814.00;;;20.57;67.47
13869;BME280;7004;48.206;16.402;2023-05-21T06:27:30;99822.44;;;20.62;67.15
13869;BME280;7004;48.206;16.402;2023-05-21T06:29:56;99827.47;;;20.91;65.46
13869;BME280;7004;48.206;16.402;2023-05-21T06:32:24;99823.69;;;21.18;64.81
13869;BME280;7004;48.206;16.402;2023-05-21T06:34:50;99822.78;;;21.52;62.24
13869;BME280;7004;48.206;16.402;2023-05-21T06:37:19;99817.59;;;21.83;61.51
13869;BME280;7004;48.206;16.402;2023-05-21T06:39:46;99823.31;;;21.88;62.02
13869;BME280;7004;48.206;16.402;2023-05-21T06:42:12;99821.13;;;21.84;61.69
13869;BME280;7004;48.206;16.402;2023-05-21T06:44:39;99812.88;;;22.18;60.41
13869;BME280;7004;48.206;16.402;2023-05-21T06:47:05;99813.72;;;21.94;61.04
13869;BME280;7004;48.206;16.402;2023-05-21T06:49:31;99816.28;;;21.87;61.41
13869;BME280;7004;48.206;16.402;2023-05-21T06:51:57;99815.94;;;21.98;59.57
13869;BME280;7004;48.206;16.402;2023-05-21T06:54:23;99822.00;;;23.28;56.14
13869;BME280;7004;48.206;16.402;2023-05-21T06:56:49;99820.75;;;23.39;54.97
13869;BME280;7004;48.206;16.402;2023-05-21T06:59:16;99826.06;;;23.24;56.10
13869;BME280;7004;48.206;16.402;2023-05-21T07:01:42;99809.63;;;23.65;56.37
13869;BME280;7004;48.206;16.402;2023-05-21T07:04:09;99818.53;;;23.74;55.82
13869;BME280;7004;48.206;16.402;2023-05-21T07:06:35;99815.38;;;23.08;54.70
13869;BME280;7004;48.206;16.402;2023-05-21T07:09:03;99808.13;;;24.09;54.58
13869;BME280;7004;48.206;16.402;2023-05-21T07:11:31;99811.84;;;24.46;53.38
13869;BME280;7004;48.206;16.402;2023-05-21T07:13:58;99806.47;;;24.23;52.78
13869;BME280;7004;48.206;16.402;2023-05-21T07:16:27;99800.94;;;24.54;51.90
13869;BME280;7004;48.206;16.402;2023-05-21T07:18:53;99802.97;;;24.37;51.85
13869;BME280;7004;48.206;16.402;2023-05-21T07:21:19;99804.94;;;24.88;52.71
13869;BME280;7004;48.206;16.402;2023-05-21T07:23:45;99801.03;;;24.60;52.53
13869;BME280;7004;48.206;16.402;2023-05-21T07:26:11;99806.44;;;24.75;51.24
13869;BME280;7004;48.206;16.402;2023-05-21T07:28:37;99807.91;;;24.93;49.31
13869;BME280;7004;48.206;16.402;2023-05-21T07:31:04;99797.50;;;24.07;51.22
13869;BME280;7004;48.206;16.402;2023-05-21T07:33:30;99804.25;;;25.52;49.22
13869;BME280;7004;48.206;16.402;2023-05-21T07:35:56;99811.47;;;25.44;51.38
13869;BME280;7004;48.206;16.402;2023-05-21T07:38:22;99799.84;;;24.63;50.96
13869;BME280;7004;48.206;16.402;2023-05-21T07:40:48;99797.44;;;25.56;49.17
13869;BME280;7004;48.206;16.402;2023-05-21T07:43:14;99796.16;;;26.23;49.38
13869;BME280;7004;48.206;16.402;2023-05-21T07:45:41;99804.19;;;24.79;49.28
13869;BME280;7004;48.206;16.402;2023-05-21T07:48:08;99812.69;;;24.76;49.79
13869;BME280;7004;48.206;16.402;2023-05-21T07:50:34;99806.09;;;24.11;50.50
13869;BME280;7004;48.206;16.402;2023-05-21T07:53:00;99813.34;;;24.63;50.44
13869;BME280;7004;48.206;16.402;2023-05-21T07:55:26;99808.34;;;25.11;48.52
13869;BME280;7004;48.206;16.402;2023-05-21T07:57:52;99812.31;;;23.65;52.16
13869;BME280;7004;48.206;16.402;2023-05-21T08:00:21;99802.63;;;25.36;49.47
13869;BME280;7004;48.206;16.402;2023-05-21T08:02:47;99815.66;;;24.96;48.77
13869;BME280;7004;48.206;16.402;2023-05-21T08:05:14;99794.84;;;26.12;46.92
13869;BME280;7004;48.206;16.402;2023-05-21T08:07:41;99808.13;;;24.76;48.09
13869;BME280;7004;48.206;16.402;2023-05-21T08:10:09;99808.53;;;24.35;49.79
13869;BME280;7004;48.206;16.402;2023-05-21T08:12:36;99808.13;;;25.64;48.25
13869;BME280;7004;48.206;16.402;2023-05-21T08:15:03;99799.03;;;26.14;48.25
13869;BME280;7004;48.206;16.402;2023-05-21T08:17:29;99792.44;;;26.93;47.64
13869;BME280;7004;48.206;16.402;2023-05-21T08:19:55;99793.69;;;26.56;46.29
13869;BME280;7004;48.206;16.402;2023-05-21T08:22:22;99802.72;;;27.05;46.35
13869;BME280;7004;48.206;16.402;2023-05-21T08:24:48;99799.59;;;26.60;47.56
13869;BME280;7004;48.206;16.402;2023-05-21T08:27:14;99799.88;;;27.26;43.84
13869;BME280;7004;48.206;16.402;2023-05-21T08:29:41;99802.41;;;25.95;45.37
13869;BME280;7004;48.206;16.402;2023-05-21T08:32:08;99802.69;;;26.56;45.32
13869;BME280;7004;48.206;16.402;2023-05-21T08:34:34;99807.03;;;26.86;44.57
13869;BME280;7004;48.206;16.402;2023-05-21T08:37:01;99796.44;;;27.59;43.88
13869;BME280;7004;48.206;16.402;2023-05-21T08:39:27;99806.88;;;27.55;44.33
13869;BME280;7004;48.206;16.402;2023-05-21T08:42:03;99806.44;;;26.97;43.74
13869;BME280;7004;48.206;16.402;2023-05-21T08:44:37;99791.84;;;27.73;43.93
13869;BME280;7004;48.206;16.402;2023-05-21T08:47:10;99806.84;;;26.03;43.45
13869;BME280;7004;48.206;16.402;2023-05-21T08:49:40;99802.22;;;27.36;43.55
13869;BME280;7004;48.206;16.402;2023-05-21T08:52:08;99803.34;;;26.37;44.45
13869;BME280;7004;48.206;16.402;2023-05-21T08:54:35;99798.75;;;27.07;44.36
13869;BME280;7004;48.206;16.402;2023-05-21T08:57:02;99803.41;;;26.44;44.08
13869;BME280;7004;48.206;16.402;2023-05-21T08:59:29;99793.53;;;27.60;42.14
13869;BME280;7004;48.206;16.402;2023-05-21T09:01:56;99784.78;;;27.98;42.71
13869;BME280;7004;48.206;16.402;2023-05-21T09:04:22;99803.31;;;26.58;42.93
13869;BME280;7004;48.206;16.402;2023-05-21T09:06:49;99793.72;;;26.00;45.20
13869;BME280;7004;48.206;16.402;2023-05-21T09:09:29;99781.22;;;28.11;41.83
13869;BME280;7004;48.206;16.402;2023-05-21T09:11:57;99780.16;;;28.32;41.70
13869;BME280;7004;48.206;16.402;2023-05-21T09:14:23;99781.38;;;27.50;41.29
13869;BME280;7004;48.206;16.402;2023-05-21T09:16:50;99782.69;;;28.00;41.35
13869;BME280;7004;48.206;16.402;2023-05-21T09:19:20;99786.56;;;27.38;42.85
13869;BME280;7004;48.206;16.402;2023-05-21T09:21:47;99784.75;;;27.58;43.37
13869;BME280;7004;48.206;16.402;2023-05-21T09:24:15;99782.81;;;27.39;42.11
13869;BME280;7004;48.206;16.402;2023-05-21T09:26:42;99780.44;;;26.40;41.84
13869;BME280;7004;48.206;16.402;2023-05-21T09:29:08;99779.72;;;26.24;42.33
13869;BME280;7004;48.206;16.402;2023-05-21T09:31:34;99779.38;;;26.34;40.86
13869;BME280;7004;48.206;16.402;2023-05-21T09:34:01;99775.34;;;26.23;42.33
13869;BME280;7004;48.206;16.402;2023-05-21T09:36:27;99791.00;;;26.00;42.39
13869;BME280;7004;48.206;16.402;2023-05-21T09:38:59;99784.94;;;26.95;42.10
13869;BME280;7004;48.206;16.402;2023-05-21T09:41:33;99782.09;;;26.69;42.95
13869;BME280;7004;48.206;16.402;2023-05-21T09:44:01;99777.91;;;27.82;41.58
13869;BME280;7004;48.206;16.402;2023-05-21T09:46:37;99782.84;;;27.52;40.20
13869;BME280;7004;48.206;16.402;2023-05-21T09:49:04;99773.28;;;27.96;42.43
13869;BME280;7004;48.206;16.402;2023-05-21T09:51:30;99777.25;;;27.74;41.85
13869;BME280;7004;48.206;16.402;2023-05-21T09:53:57;99777.09;;;28.87;40.70
13869;BME280;7004;48.206;16.402;2023-05-21T09:56:26;99774.53;;;28.14;41.28
13869;BME280;7004;48.206;16.402;2023-05-21T09:58:59;99765.34;;;27.88;40.52
13869;BME280;7004;48.206;16.402;2023-05-21T10:01:27;99771.41;;;27.83;40.39
13869;BME280;7004;48.206;16.402;2023-05-21T10:03:57;99777.16;;;27.34;41.01
13869;BME280;7004;48.206;16.402;2023-05-21T10:06:31;99780.34;;;27.51;41.25
13869;BME280;7004;48.206;16.402;2023-05-21T10:09:04;99778.69;;;27.63;41.35
13869;BME280;7004;48.206;16.402;2023-05-21T10:11:32;99772.63;;;28.34;40.07
13869;BME280;7004;48.206;16.402;2023-05-21T10:14:15;99780.38;;;28.04;39.71
13869;BME280;7004;48.206;16.402;2023-05-21T10:16:42;99777.25;;;27.74;40.65
13869;BME280;7004;48.206;16.402;2023-05-21T10:19:09;99772.84;;;28.32;40.25
13869;BME280;7004;48.206;16.402;2023-05-21T10:21:36;99768.91;;;27.82;39.54
13869;BME280;7004;48.206;16.402;2023-05-21T10:24:07;99779.31;;;27.65;40.20
13869;BME280;7004;48.206;16.402;2023-05-21T10:26:35;99769.31;;;28.19;39.16
13869;BME280;7004;48.206;16.402;2023-05-21T10:29:01;99775.50;;;27.33;41.06
13869;BME280;7004;48.206;16.402;2023-05-21T10:31:28;99768.66;;;28.37;39.83
13869;BME280;7004;48.206;16.402;2023-05-21T10:33:54;99763.44;;;27.69;39.59
13869;BME280;7004;48.206;16.402;2023-05-21T10:36:21;99760.59;;;28.82;39.03
13869;BME280;7004;48.206;16.402;2023-05-21T10:38:48;99757.00;;;28.03;39.71
13869;BME280;7004;48.206;16.402;2023-05-21T10:41:17;99760.72;;;29.00;38.10
13869;BME280;7004;48.206;16.402;2023-05-21T10:59:14;99738.94;;;28.48;40.70
13869;BME280;7004;48.206;16.402;2023-05-21T11:01:49;99730.88;;;29.32;39.38
13869;BME280;7004;48.206;16.402;2023-05-21T11:04:25;99738.94;;;28.48;39.12
13869;BME280;7004;48.206;16.402;2023-05-21T11:06:52;99743.56;;;27.41;39.96
13869;BME280;7004;48.206;16.402;2023-05-21T11:09:18;99742.34;;;27.64;40.63
13869;BME280;7004;48.206;16.402;2023-05-21T11:11:52;99742.97;;;27.73;39.42
13869;BME280;7004;48.206;16.402;2023-05-21T11:14:40;99738.00;;;28.81;38.39
13869;BME280;7004;48.206;16.402;2023-05-21T11:17:14;99739.50;;;28.70;38.31
13869;BME280;7004;48.206;16.402;2023-05-21T11:19:45;99734.78;;;28.46;40.39
13869;BME280;7004;48.206;16.402;2023-05-21T11:22:25;99740.72;;;28.81;39.54
13869;BME280;7004;48.206;16.402;2023-05-21T11:24:53;99740.41;;;28.51;40.57
13869;BME280;7004;48.206;16.402;2023-05-21T11:27:40;99733.50;;;28.42;38.31
13869;BME280;7004;48.206;16.402;2023-05-21T11:30:08;99739.38;;;28.45;37.49
13869;BME280;7004;48.206;16.402;2023-05-21T11:35:26;99735.22;;;28.94;37.68
13869;BME280;7004;48.206;16.402;2023-05-21T11:37:53;99737.31;;;28.14;37.41
13869;BME280;7004;48.206;16.402;2023-05-21T11:40:22;99725.84;;;28.84;35.92
13869;BME280;7004;48.206;16.402;2023-05-21T11:42:55;99730.91;;;28.80;36.88
13869;BME280;7004;48.206;16.402;2023-05-21T11:45:29;99728.53;;;28.19;37.72
13869;BME280;7004;48.206;16.402;2023-05-21T11:47:59;99729.38;;;28.19;37.57
13869;BME280;7004;48.206;16.402;2023-05-21T11:50:26;99726.94;;;29.21;35.77
13869;BME280;7004;48.206;16.402;2023-05-21T11:52:55;99720.06;;;29.50;37.35
13869;BME280;7004;48.206;16.402;2023-05-21T11:55:23;99714.13;;;29.85;35.27
13869;BME280;7004;48.206;16.402;2023-05-21T11:57:53;99724.91;;;29.42;35.72
13869;BME280;7004;48.206;16.402;2023-05-21T12:00:19;99718.91;;;29.65;35.29
13869;BME280;7004;48.206;16.402;2023-05-21T12:02:50;99724.78;;;28.06;37.15
13869;BME280;7004;48.206;16.402;2023-05-21T12:05:17;99718.47;;;28.46;34.93
13869;BME280;7004;48.206;16.402;2023-05-21T12:07:46;99717.84;;;28.37;36.31
13869;BME280;7004;48.206;16.402;2023-05-21T12:10:19;99714.75;;;28.20;35.59
13869;BME280;7004;48.206;16.402;2023-05-21T12:12:45;99713.03;;;28.46;35.20
13869;BME280;7004;48.206;16.402;2023-05-21T12:15:11;99718.31;;;28.86;35.19
13869;BME280;7004;48.206;16.402;2023-05-21T12:17:38;99716.19;;;28.36;36.23
13869;BME280;7004;48.206;16.402;2023-05-21T12:20:05;99711.50;;;28.63;37.21
13869;BME280;7004;48.206;16.402;2023-05-21T12:22:33;99709.06;;;28.93;37.28
13869;BME280;7004;48.206;16.402;2023-05-21T12:24:59;99710.50;;;28.38;36.91
13869;BME280;7004;48.206;16.402;2023-05-21T12:27:26;99709.28;;;28.34;36.19
13869;BME280;7004;48.206;16.402;2023-05-21T12:29:53;99699.88;;;28.36;35.32
13869;BME280;7004;48.206;16.402;2023-05-21T12:32:20;99704.53;;;28.09;35.95
13869;BME280;7004;48.206;16.402;2023-05-21T12:34:52;99700.13;;;28.21;36.74
13869;BME280;7004;48.206;16.402;2023-05-21T12:37:27;99699.31;;;29.17;37.36
13869;BME280;7004;48.206;16.402;2023-05-21T12:39:58;99698.81;;;29.59;35.90
13869;BME280;7004;48.206;16.402;2023-05-21T12:42:31;99690.50;;;29.22;36.73
13869;BME280;7004;48.206;16.402;2023-05-21T12:45:07;99693.72;;;29.69;36.45
13869;BME280;7004;48.206;16.402;2023-05-21T12:47:33;99693.78;;;28.92;36.08
13869;BME280;7004;48.206;16.402;2023-05-21T12:50:02;99698.34;;;29.05;37.37
13869;BME280;7004;48.206;16.402;2023-05-21T12:52:31;99689.69;;;29.22;35.89
13869;BME280;7004;48.206;16.402;2023-05-21T12:55:01;99679.59;;;30.22;35.64
13869;BME280;7004;48.206;16.402;2023-05-21T12:57:35;99679.34;;;29.30;36.06
13869;BME280;7004;48.206;16.402;2023-05-21T13:00:04;99682.75;;;29.51;36.28
13869;BME280;7004;48.206;16.402;2023-05-21T13:05:07;99674.69;;;28.67;36.25
13869;BME280;7004;48.206;16.402;2023-05-21T13:07:36;99669.47;;;29.61;33.78
13869;BME280;7004;48.206;16.402;2023-05-21T13:10:04;99667.53;;;29.43;35.57
13869;BME280;7004;48.206;16.402;2023-05-21T13:12:32;99674.13;;;28.52;35.24
13869;BME280;7004;48.206;16.402;2023-05-21T13:15:00;99655.03;;;29.04;34.40
13869;BME280;7004;48.206;16.402;2023-05-21T13:17:27;99667.16;;;28.69;35.36
13869;BME280;7004;48.206;16.402;2023-05-21T13:20:10;99666.63;;;28.34;34.47
13869;BME280;7004;48.206;16.402;2023-05-21T13:22:46;99665.69;;;28.67;34.81
13869;BME280;7004;48.206;16.402;2023-05-21T13:25:21;99655.66;;;29.37;34.90
13869;BME280;7004;48.206;16.402;2023-05-21T13:27:50;99645.63;;;29.56;34.95